Chamois, Missouri
Current Conditions -  °F | °C
As of 3:53 AM on Tuesday 27 Jan 2015 (Local Time) from KJEF Reporting Station
Clear Clear  
Wind Chill: 31°   Ceiling: Unl
Heat Index: 31°   Visibility: 10mi
Dew Point: 29°   Wind: 3mph
Humidity: 92%   Direction: 290°WNW
Pressure: 30.04"   Gusts: NA
Location:  38.68°N, 91.77°W
Report Text: KJEF 270953Z AUTO 29003KT 10SM CLR M01/M02 A3004 RMK AO2 SLP164 T10061017
Loading
Personal Weather Stations






























Interactive Weather Map New forecast layout! Learn more

10-Day Weather Forecast

Advertisements
Track Severe Weather on mobile